createdAt,value
2023-08-27T00:00:24.352Z,4.18
2023-08-27T00:02:54.171Z,4.97
2023-08-27T00:05:26.512Z,4.85
2023-08-27T00:07:56.521Z,4.88
2023-08-27T00:10:26.204Z,4.43
2023-08-27T00:12:55.805Z,5.28
2023-08-27T00:15:25.557Z,5.10
2023-08-27T00:17:55.283Z,4.90
2023-08-27T00:20:27.602Z,5.30
2023-08-27T00:22:57.650Z,5.80
2023-08-27T00:25:27.681Z,5.32
2023-08-27T00:27:57.261Z,5.28
2023-08-27T00:30:26.897Z,5.72
2023-08-27T00:32:56.744Z,5.07
2023-08-27T00:35:29.075Z,5.35
2023-08-27T00:37:58.814Z,5.93
2023-08-27T00:40:30.942Z,6.20
2023-08-27T00:43:00.869Z,5.50
2023-08-27T00:45:30.905Z,6.32
2023-08-27T00:48:00.666Z,6.07
2023-08-27T00:50:33.490Z,5.35
2023-08-27T00:53:03.829Z,4.78
2023-08-27T00:55:33.862Z,5.10
2023-08-27T00:58:03.529Z,4.97
2023-08-27T01:00:33.237Z,5.13
2023-08-27T01:03:03.332Z,4.50
2023-08-27T01:05:36.046Z,5.28
2023-08-27T01:08:09.223Z,5.05
2023-08-27T01:10:45.739Z,5.90
2023-08-27T01:13:17.997Z,5.63
2023-08-27T01:15:49.411Z,6.03
2023-08-27T01:18:19.877Z,5.80
2023-08-27T01:20:52.224Z,5.63
2023-08-27T01:23:25.914Z,4.90
2023-08-27T01:25:57.462Z,4.28
2023-08-27T01:28:32.377Z,5.20
2023-08-27T01:31:04.984Z,4.50
2023-08-27T01:33:37.004Z,4.68
2023-08-27T01:36:07.133Z,4.50
2023-08-27T01:38:39.373Z,4.93
2023-08-27T01:41:10.345Z,4.63
2023-08-27T01:43:40.000Z,4.88
2023-08-27T01:46:09.798Z,5.10
2023-08-27T01:48:39.628Z,5.38
2023-08-27T01:51:09.272Z,5.32
2023-08-27T01:53:41.551Z,5.63
2023-08-27T01:56:11.261Z,5.47
2023-08-27T01:58:41.164Z,4.78
2023-08-27T02:01:12.159Z,5.53
2023-08-27T02:03:41.885Z,5.68
2023-08-27T02:06:11.490Z,4.97
2023-08-27T02:08:45.165Z,6.13
2023-08-27T02:11:14.830Z,5.90
2023-08-27T02:13:44.500Z,6.18
2023-08-27T02:16:14.268Z,6.00
2023-08-27T02:18:43.966Z,6.45
2023-08-27T02:21:14.196Z,6.50
2023-08-27T02:23:46.457Z,7.18
2023-08-27T02:26:16.161Z,6.75
2023-08-27T02:28:45.857Z,7.03
2023-08-27T02:31:15.534Z,7.13
2023-08-27T02:33:45.343Z,7.05
2023-08-27T02:36:15.043Z,6.78
2023-08-27T02:38:47.348Z,6.45
2023-08-27T02:41:17.357Z,6.95
2023-08-27T02:43:46.979Z,8.00
2023-08-27T02:46:17.359Z,6.70
2023-08-27T02:48:47.006Z,6.53
2023-08-27T02:51:16.629Z,6.57
2023-08-27T02:53:52.489Z,6.70
2023-08-27T02:56:22.905Z,7.10
2023-08-27T02:58:53.030Z,5.50
2023-08-27T03:01:23.100Z,6.18
2023-08-27T03:03:54.765Z,5.30
2023-08-27T03:06:24.500Z,5.50
2023-08-27T03:08:56.840Z,6.55
2023-08-27T03:11:26.700Z,5.35
2023-08-27T03:13:56.440Z,5.82
2023-08-27T03:16:26.195Z,5.53
2023-08-27T03:18:55.920Z,5.97
2023-08-27T03:21:25.610Z,5.57
2023-08-27T03:23:57.996Z,5.53
2023-08-27T03:26:27.712Z,5.53
2023-08-27T03:28:57.310Z,5.57
2023-08-27T03:31:27.146Z,5.20
2023-08-27T03:33:56.748Z,5.13
2023-08-27T03:36:26.726Z,5.38
2023-08-27T03:38:59.349Z,4.63
2023-08-27T03:41:30.335Z,6.22
2023-08-27T03:44:00.062Z,5.88
2023-08-27T03:46:31.632Z,5.50
2023-08-27T03:49:03.176Z,5.90
2023-08-27T03:51:33.243Z,5.22
2023-08-27T03:54:05.484Z,5.53
2023-08-27T03:56:35.252Z,5.57
2023-08-27T03:59:06.651Z,5.90
2023-08-27T04:01:36.452Z,5.43
2023-08-27T04:04:06.360Z,5.22
2023-08-27T04:06:36.257Z,6.07
2023-08-27T04:09:08.791Z,5.43
2023-08-27T04:11:39.037Z,5.55
2023-08-27T04:14:08.892Z,5.20
2023-08-27T04:16:38.605Z,6.28
2023-08-27T04:19:08.891Z,5.40
2023-08-27T04:21:38.555Z,5.43
2023-08-27T04:24:11.464Z,5.43
2023-08-27T04:26:41.508Z,5.30
2023-08-27T04:29:13.133Z,5.40
2023-08-27T04:31:46.546Z,4.72
2023-08-27T04:34:16.267Z,4.47
2023-08-27T04:36:45.924Z,4.60
2023-08-27T04:39:18.145Z,5.53
2023-08-27T04:41:47.902Z,4.95
2023-08-27T04:44:18.086Z,4.85
2023-08-27T04:46:47.743Z,5.78
2023-08-27T04:49:17.355Z,5.32
2023-08-27T04:51:47.069Z,4.38
2023-08-27T04:54:19.340Z,5.20
2023-08-27T04:56:49.146Z,5.00
2023-08-27T04:59:19.407Z,5.22
2023-08-27T05:01:49.092Z,5.43
2023-08-27T05:04:20.107Z,5.60
2023-08-27T05:06:49.796Z,5.30
2023-08-27T05:09:22.119Z,5.80
2023-08-27T05:11:51.911Z,5.63
2023-08-27T05:14:21.858Z,4.82
2023-08-27T05:16:51.563Z,4.82
2023-08-27T05:19:21.286Z,5.15
2023-08-27T05:21:50.977Z,6.15
2023-08-27T05:24:24.422Z,4.60
2023-08-27T05:26:54.158Z,5.18
2023-08-27T05:29:24.310Z,6.05
2023-08-27T05:31:54.754Z,5.05
2023-08-27T05:34:24.434Z,4.57
2023-08-27T05:36:54.688Z,4.65
2023-08-27T05:39:27.021Z,4.88
2023-08-27T05:41:56.869Z,5.00
2023-08-27T05:44:26.849Z,4.15
2023-08-27T05:46:56.647Z,4.72
2023-08-27T05:49:27.932Z,4.93
2023-08-27T05:51:57.628Z,4.53
2023-08-27T05:54:29.889Z,5.13
2023-08-27T05:57:00.491Z,4.78
2023-08-27T05:59:30.106Z,4.95
2023-08-27T06:02:01.133Z,4.68
2023-08-27T06:04:32.185Z,5.15
2023-08-27T06:07:01.867Z,4.82
2023-08-27T06:09:34.128Z,4.70
2023-08-27T06:12:03.968Z,4.50
2023-08-27T06:14:33.597Z,3.70
2023-08-27T06:17:03.570Z,4.55
2023-08-27T06:19:47.753Z,4.63
2023-08-27T06:22:18.756Z,4.70
2023-08-27T06:24:51.414Z,4.43
2023-08-27T06:27:21.120Z,4.88
2023-08-27T06:29:50.766Z,4.20
2023-08-27T06:32:20.929Z,5.43
2023-08-27T06:34:51.048Z,4.72
2023-08-27T06:37:20.697Z,5.00
2023-08-27T06:39:53.217Z,4.22
2023-08-27T06:42:23.155Z,5.03
2023-08-27T06:44:55.244Z,4.82
2023-08-27T06:47:25.536Z,5.20
2023-08-27T06:49:55.165Z,5.53
2023-08-27T06:52:25.401Z,4.45
2023-08-27T06:54:57.649Z,4.97
2023-08-27T06:57:27.316Z,5.05
2023-08-27T06:59:57.611Z,5.10
2023-08-27T07:02:28.536Z,5.28
2023-08-27T07:04:59.009Z,4.90
2023-08-27T07:07:28.825Z,5.20
2023-08-27T07:10:01.075Z,4.95
2023-08-27T07:12:30.787Z,5.50
2023-08-27T07:15:00.439Z,4.75
2023-08-27T07:17:30.334Z,5.25
2023-08-27T07:20:00.065Z,4.80
2023-08-27T07:22:29.763Z,4.75
2023-08-27T07:25:02.116Z,5.07
2023-08-27T07:27:31.767Z,4.90
2023-08-27T07:30:01.418Z,4.57
2023-08-27T07:32:31.206Z,4.63
2023-08-27T07:35:00.900Z,4.88
2023-08-27T07:37:34.565Z,4.47
2023-08-27T07:40:10.661Z,4.18
2023-08-27T07:42:42.378Z,4.30
2023-08-27T07:45:13.839Z,4.85
2023-08-27T07:47:43.598Z,5.20
2023-08-27T07:50:13.247Z,4.35
2023-08-27T07:52:42.885Z,4.60
2023-08-27T07:55:15.269Z,5.32
2023-08-27T07:57:44.994Z,5.03
2023-08-27T08:00:16.076Z,4.88
2023-08-27T08:02:50.123Z,4.88
2023-08-27T08:05:20.033Z,4.97
2023-08-27T08:07:49.756Z,5.30
2023-08-27T08:10:22.312Z,4.82
2023-08-27T08:12:52.015Z,5.95
2023-08-27T08:15:21.938Z,5.38
2023-08-27T08:17:51.667Z,6.35
2023-08-27T08:20:21.267Z,6.28
2023-08-27T08:22:50.916Z,6.57
2023-08-27T08:25:25.218Z,6.63
2023-08-27T08:27:54.885Z,6.20
2023-08-27T08:30:24.770Z,6.43
2023-08-27T08:32:55.440Z,6.57
2023-08-27T08:35:25.312Z,6.97
2023-08-27T08:37:54.998Z,6.88
2023-08-27T08:40:27.333Z,7.40
2023-08-27T08:43:01.605Z,8.48
2023-08-27T08:45:33.931Z,8.27
2023-08-27T08:48:04.620Z,8.18
2023-08-27T08:50:37.198Z,7.65
2023-08-27T08:53:10.235Z,8.52
2023-08-27T08:55:44.027Z,8.32
2023-08-27T08:58:15.287Z,8.68
2023-08-27T09:00:45.141Z,8.57
2023-08-27T09:03:15.244Z,8.85
2023-08-27T09:05:45.536Z,7.55
2023-08-27T09:08:16.186Z,7.13
2023-08-27T09:10:48.521Z,8.00
2023-08-27T09:13:20.688Z,8.18
2023-08-27T09:15:50.798Z,7.65
2023-08-27T09:18:20.560Z,8.18
2023-08-27T09:20:51.866Z,8.00
2023-08-27T09:23:21.631Z,7.13
2023-08-27T09:25:54.769Z,6.85
2023-08-27T09:28:24.508Z,7.30
2023-08-27T09:30:54.705Z,7.00
2023-08-27T09:33:24.403Z,7.28
2023-08-27T09:35:54.133Z,7.20
2023-08-27T09:38:24.336Z,6.70
2023-08-27T09:40:57.058Z,7.28
2023-08-27T09:43:30.392Z,7.22
2023-08-27T09:46:00.078Z,6.93
2023-08-27T09:48:30.146Z,6.07
2023-08-27T09:51:06.603Z,6.45
2023-08-27T09:53:36.774Z,6.47
2023-08-27T09:56:10.487Z,6.65
2023-08-27T09:58:41.171Z,6.40
2023-08-27T10:01:11.500Z,6.05
2023-08-27T10:03:41.742Z,6.35
2023-08-27T10:06:11.704Z,6.57
2023-08-27T10:08:48.942Z,6.20
2023-08-27T10:11:23.669Z,5.78
2023-08-27T10:13:53.665Z,6.05
2023-08-27T10:16:23.517Z,5.85
2023-08-27T10:18:53.678Z,5.93
2023-08-27T10:21:23.832Z,4.63
2023-08-27T10:23:53.871Z,4.68
2023-08-27T10:26:29.065Z,4.78
2023-08-27T10:29:02.858Z,4.50
2023-08-27T10:31:32.775Z,5.38
2023-08-27T10:34:02.628Z,4.88
2023-08-27T10:36:32.746Z,5.25
2023-08-27T10:39:04.726Z,4.93
2023-08-27T10:41:39.276Z,4.65
2023-08-27T10:44:09.222Z,4.57
2023-08-27T10:46:38.861Z,5.07
2023-08-27T10:49:18.864Z,4.68
2023-08-27T10:51:50.030Z,4.13
2023-08-27T10:54:28.250Z,3.83
2023-08-27T10:57:00.560Z,4.35
2023-08-27T10:59:31.634Z,4.55
2023-08-27T11:02:09.715Z,5.20
2023-08-27T11:04:43.583Z,4.40
2023-08-27T11:07:16.431Z,3.53
2023-08-27T11:09:50.432Z,3.47
2023-08-27T11:12:29.864Z,3.45
2023-08-27T11:15:12.843Z,3.78
2023-08-27T11:17:43.063Z,3.83
2023-08-27T11:20:24.432Z,3.20
2023-08-27T11:22:58.191Z,3.13
2023-08-27T11:25:30.708Z,2.83
2023-08-27T11:28:04.343Z,3.67
2023-08-27T11:30:34.360Z,3.40
2023-08-27T11:33:04.022Z,3.60
2023-08-27T11:35:33.848Z,2.80
2023-08-27T11:38:05.108Z,2.85
2023-08-27T11:40:34.997Z,2.50
2023-08-27T11:43:07.416Z,2.80
2023-08-27T11:45:39.160Z,2.67
2023-08-27T11:48:10.124Z,2.50
2023-08-27T11:50:41.675Z,2.50
2023-08-27T11:53:12.014Z,2.85
2023-08-27T11:55:43.165Z,2.53
2023-08-27T11:58:16.469Z,2.75
2023-08-27T12:00:46.295Z,2.55
2023-08-27T12:03:15.941Z,3.20
2023-08-27T12:05:46.041Z,2.58
2023-08-27T12:08:18.023Z,2.90
2023-08-27T12:10:51.060Z,2.78
2023-08-27T12:13:24.206Z,2.60
2023-08-27T12:15:54.105Z,2.22
2023-08-27T12:18:24.180Z,2.13
2023-08-27T12:20:53.792Z,2.40
2023-08-27T12:23:23.388Z,2.25
2023-08-27T12:25:54.919Z,1.98
2023-08-27T12:28:28.074Z,2.55
2023-08-27T12:30:59.546Z,2.63
2023-08-27T12:33:41.907Z,2.80
2023-08-27T12:36:12.042Z,2.63
2023-08-27T12:38:41.790Z,2.55
2023-08-27T12:41:11.389Z,2.55
2023-08-27T12:43:43.616Z,3.10
2023-08-27T12:46:13.410Z,3.20
2023-08-27T12:48:43.044Z,3.45
2023-08-27T12:51:12.677Z,3.05
2023-08-27T12:53:42.625Z,3.08
2023-08-27T12:56:12.222Z,3.13
2023-08-27T12:58:44.525Z,2.90
2023-08-27T13:01:14.220Z,3.35
2023-08-27T13:03:43.963Z,3.60
2023-08-27T13:06:13.777Z,2.40
2023-08-27T13:08:43.423Z,2.45
2023-08-27T13:11:13.044Z,2.17
2023-08-27T13:13:46.231Z,2.03
2023-08-27T13:16:16.008Z,2.28
2023-08-27T13:18:46.022Z,2.78
2023-08-27T13:21:15.683Z,2.30
2023-08-27T13:23:46.168Z,2.38
2023-08-27T13:26:15.886Z,2.08
2023-08-27T13:28:48.309Z,2.42
2023-08-27T13:31:18.144Z,1.60
2023-08-27T13:33:47.804Z,1.73
2023-08-27T13:36:17.479Z,1.77
2023-08-27T13:38:47.200Z,1.75
2023-08-27T13:41:16.869Z,1.48
2023-08-27T13:43:49.089Z,1.60
2023-08-27T13:46:18.884Z,1.67
2023-08-27T13:48:48.522Z,2.17
2023-08-27T13:51:18.756Z,2.10
2023-08-27T13:53:48.600Z,2.40
2023-08-27T13:56:18.228Z,2.30
2023-08-27T13:58:50.597Z,2.22
2023-08-27T14:01:22.937Z,1.90
2023-08-27T14:03:52.680Z,1.98
2023-08-27T14:06:22.418Z,1.95
2023-08-27T14:08:54.610Z,2.35
2023-08-27T14:11:24.245Z,2.10
2023-08-27T14:13:56.529Z,1.83
2023-08-27T14:16:26.215Z,2.25
2023-08-27T14:18:55.823Z,2.08
2023-08-27T14:21:25.548Z,2.35
2023-08-27T14:23:55.215Z,2.28
2023-08-27T14:26:24.892Z,2.00
2023-08-27T14:28:57.155Z,2.25
2023-08-27T14:31:26.894Z,2.15
2023-08-27T14:33:57.922Z,2.33
2023-08-27T14:36:27.568Z,2.55
2023-08-27T14:38:57.264Z,2.13
2023-08-27T14:41:26.884Z,2.47
2023-08-27T14:43:59.185Z,2.78
2023-08-27T14:46:28.915Z,2.50
2023-08-27T14:48:59.429Z,2.03
2023-08-27T14:51:29.108Z,2.10
2023-08-27T14:53:58.745Z,2.03
2023-08-27T14:56:29.446Z,2.40
2023-08-27T14:59:01.756Z,2.88
2023-08-27T15:01:31.596Z,2.17
2023-08-27T15:04:01.286Z,2.83
2023-08-27T15:06:30.924Z,3.35
2023-08-27T15:09:01.860Z,2.80
2023-08-27T15:11:31.505Z,2.72
2023-08-27T15:14:04.089Z,2.40
2023-08-27T15:16:33.764Z,2.33
2023-08-27T15:19:03.373Z,2.08
2023-08-27T15:21:33.857Z,2.38
2023-08-27T15:24:03.527Z,2.10
2023-08-27T15:26:33.130Z,2.92
2023-08-27T15:29:05.464Z,2.00
2023-08-27T15:31:36.323Z,1.95
2023-08-27T15:34:10.812Z,2.40
2023-08-27T15:36:42.234Z,2.20
2023-08-27T15:39:11.975Z,1.83
2023-08-27T15:41:42.071Z,1.75
2023-08-27T15:44:14.412Z,2.03
2023-08-27T15:46:44.218Z,2.22
2023-08-27T15:49:13.988Z,2.30
2023-08-27T15:51:43.684Z,2.20
2023-08-27T15:54:13.301Z,1.88
2023-08-27T15:56:42.900Z,2.25
2023-08-27T15:59:15.151Z,1.77
2023-08-27T16:01:44.853Z,2.13
2023-08-27T16:04:14.595Z,2.25
2023-08-27T16:06:44.255Z,2.00
2023-08-27T16:09:15.101Z,2.10
2023-08-27T16:11:44.782Z,3.33
2023-08-27T16:14:17.047Z,2.30
2023-08-27T16:16:46.799Z,2.95
2023-08-27T16:19:16.416Z,1.98
2023-08-27T16:21:47.226Z,2.20
2023-08-27T16:24:17.193Z,1.90
2023-08-27T16:26:46.951Z,2.60
2023-08-27T16:29:19.181Z,2.20
2023-08-27T16:31:48.871Z,2.20
2023-08-27T16:34:18.463Z,2.17
2023-08-27T16:36:48.071Z,1.92
2023-08-27T16:39:17.717Z,1.73
2023-08-27T16:41:47.385Z,1.50
2023-08-27T16:44:19.630Z,2.28
2023-08-27T16:46:50.656Z,2.15
2023-08-27T16:49:20.401Z,1.83
2023-08-27T16:51:50.076Z,1.98
2023-08-27T16:54:22.481Z,1.88
2023-08-27T16:56:52.142Z,2.30
2023-08-27T16:59:24.376Z,1.83
2023-08-27T17:01:54.027Z,2.17
2023-08-27T17:04:25.113Z,1.85
2023-08-27T17:06:56.161Z,1.45
2023-08-27T17:09:25.823Z,1.45
2023-08-27T17:11:55.454Z,1.40
2023-08-27T17:14:27.774Z,1.77
2023-08-27T17:16:57.482Z,1.33
2023-08-27T17:19:27.101Z,2.20
2023-08-27T17:21:56.743Z,1.75
2023-08-27T17:24:26.352Z,2.00
2023-08-27T17:26:56.006Z,2.13
2023-08-27T17:29:28.301Z,2.30
2023-08-27T17:31:58.036Z,1.88
2023-08-27T17:34:27.711Z,2.75
2023-08-27T17:36:57.400Z,2.97
2023-08-27T17:39:27.062Z,2.17
2023-08-27T17:41:56.747Z,2.10
2023-08-27T17:44:28.981Z,1.98
2023-08-27T17:46:59.287Z,2.88
2023-08-27T17:49:28.942Z,2.65
2023-08-27T17:51:58.591Z,2.22
2023-08-27T17:54:28.303Z,2.20
2023-08-27T17:57:00.580Z,2.00
2023-08-27T17:59:33.093Z,1.85
2023-08-27T18:02:03.969Z,1.80
2023-08-27T18:04:33.786Z,1.63
2023-08-27T18:07:04.044Z,2.10
2023-08-27T18:09:33.834Z,2.03
2023-08-27T18:12:03.747Z,1.77
2023-08-27T18:14:36.913Z,1.80
2023-08-27T18:17:06.735Z,1.95
2023-08-27T18:19:36.376Z,2.17
2023-08-27T18:22:05.993Z,2.25
2023-08-27T18:24:35.823Z,1.73
2023-08-27T18:27:05.575Z,2.33
2023-08-27T18:29:37.841Z,2.50
2023-08-27T18:32:08.241Z,2.25
2023-08-27T18:34:37.874Z,2.30
2023-08-27T18:37:07.825Z,1.70
2023-08-27T18:39:39.781Z,1.40
2023-08-27T18:42:17.338Z,1.75
2023-08-27T18:44:56.301Z,1.60
2023-08-27T18:47:26.062Z,1.70
2023-08-27T18:49:55.750Z,1.55
2023-08-27T18:52:25.823Z,1.67
2023-08-27T18:54:55.479Z,1.38
2023-08-27T18:57:25.201Z,1.75
2023-08-27T18:59:57.623Z,1.60
2023-08-27T19:02:27.498Z,1.33
2023-08-27T19:04:57.265Z,1.55
2023-08-27T19:07:27.064Z,1.58
2023-08-27T19:09:56.859Z,1.95
2023-08-27T19:12:26.781Z,1.58
2023-08-27T19:14:59.392Z,1.58
2023-08-27T19:17:29.204Z,1.83
2023-08-27T19:19:58.906Z,1.70
2023-08-27T19:22:28.568Z,2.40
2023-08-27T19:24:58.302Z,1.88
2023-08-27T19:27:27.978Z,1.92
2023-08-27T19:30:00.657Z,2.22
2023-08-27T19:32:30.485Z,2.20
2023-08-27T19:35:00.593Z,2.38
2023-08-27T19:37:30.338Z,1.90
2023-08-27T19:39:59.935Z,2.30
2023-08-27T19:42:29.653Z,2.42
2023-08-27T19:45:01.952Z,2.45
2023-08-27T19:47:31.792Z,2.20
2023-08-27T19:50:01.554Z,2.22
2023-08-27T19:52:31.310Z,1.88
2023-08-27T19:55:01.019Z,2.28
2023-08-27T19:57:33.415Z,2.05
2023-08-27T20:00:07.627Z,2.10
2023-08-27T20:02:37.286Z,1.77
2023-08-27T20:05:07.368Z,2.15
2023-08-27T20:07:37.152Z,2.10
2023-08-27T20:10:07.131Z,2.20
2023-08-27T20:12:36.765Z,2.20
2023-08-27T20:15:09.840Z,1.90
2023-08-27T20:17:39.708Z,2.38
2023-08-27T20:20:10.354Z,2.45
2023-08-27T20:22:40.101Z,2.28
2023-08-27T20:25:11.580Z,1.70
2023-08-27T20:27:41.329Z,1.60
2023-08-27T20:30:14.760Z,1.77
2023-08-27T20:32:44.907Z,1.98
2023-08-27T20:35:14.928Z,1.73
2023-08-27T20:37:44.590Z,1.90
2023-08-27T20:40:15.173Z,2.13
2023-08-27T20:42:46.940Z,1.58
2023-08-27T20:45:19.467Z,1.83
2023-08-27T20:47:49.175Z,1.83
2023-08-27T20:50:18.847Z,2.10
2023-08-27T20:52:49.126Z,2.00
2023-08-27T20:55:18.970Z,1.42
2023-08-27T20:57:48.626Z,1.80
2023-08-27T21:00:21.027Z,1.88
2023-08-27T21:02:50.817Z,2.00
2023-08-27T21:05:20.544Z,2.15
2023-08-27T21:07:50.331Z,2.03
2023-08-27T21:10:20.042Z,1.73
2023-08-27T21:12:49.708Z,2.22
2023-08-27T21:15:22.055Z,2.08
2023-08-27T21:17:51.870Z,1.58
2023-08-27T21:20:21.670Z,2.00
2023-08-27T21:22:51.686Z,2.00
2023-08-27T21:25:21.339Z,2.00
2023-08-27T21:27:51.005Z,2.10
2023-08-27T21:30:23.334Z,1.40
2023-08-27T21:32:53.115Z,2.00
2023-08-27T21:35:22.858Z,2.20
2023-08-27T21:37:52.494Z,1.92
2023-08-27T21:40:22.147Z,1.98
2023-08-27T21:42:51.847Z,1.88
2023-08-27T21:45:24.100Z,1.83
2023-08-27T21:47:54.001Z,1.60
2023-08-27T21:50:23.797Z,1.70
2023-08-27T21:52:54.115Z,2.00
2023-08-27T21:55:23.893Z,1.73
2023-08-27T21:57:54.695Z,2.00
2023-08-27T22:00:27.058Z,2.38
2023-08-27T22:02:58.349Z,2.30
2023-08-27T22:05:28.164Z,1.88
2023-08-27T22:07:57.960Z,2.45
2023-08-27T22:10:27.868Z,2.53
2023-08-27T22:12:57.538Z,2.22
2023-08-27T22:15:29.920Z,2.40
2023-08-27T22:18:00.099Z,2.20
2023-08-27T22:20:29.940Z,2.30
2023-08-27T22:22:59.912Z,1.98
2023-08-27T22:25:29.825Z,1.90
2023-08-27T22:27:59.464Z,2.25
2023-08-27T22:30:31.802Z,2.30
2023-08-27T22:33:01.793Z,2.58
2023-08-27T22:35:31.950Z,2.30
2023-08-27T22:38:01.965Z,2.45
2023-08-27T22:40:31.579Z,2.45
2023-08-27T22:43:01.395Z,2.65
2023-08-27T22:45:33.813Z,2.13
2023-08-27T22:48:03.606Z,2.42
2023-08-27T22:50:33.260Z,1.90
2023-08-27T22:53:03.127Z,1.85
2023-08-27T22:55:33.046Z,2.30
2023-08-27T22:58:02.639Z,2.17
2023-08-27T23:00:34.938Z,2.13
2023-08-27T23:03:04.842Z,1.70
2023-08-27T23:05:34.745Z,2.40
2023-08-27T23:08:04.388Z,2.40
2023-08-27T23:10:34.020Z,2.30
2023-08-27T23:13:04.099Z,2.38
2023-08-27T23:15:36.797Z,2.13
2023-08-27T23:18:06.771Z,2.63
2023-08-27T23:20:36.522Z,2.20
2023-08-27T23:23:06.718Z,2.38
2023-08-27T23:25:36.314Z,2.08
2023-08-27T23:28:06.164Z,2.38
2023-08-27T23:30:38.769Z,2.47
2023-08-27T23:33:08.968Z,2.40
2023-08-27T23:35:38.659Z,2.53
2023-08-27T23:38:08.346Z,2.67
2023-08-27T23:40:38.086Z,2.80
2023-08-27T23:43:07.708Z,2.40
2023-08-27T23:45:40.275Z,2.45
2023-08-27T23:48:12.131Z,2.63
2023-08-27T23:50:41.814Z,2.67
2023-08-27T23:53:13.541Z,2.70
2023-08-27T23:55:43.349Z,2.75
2023-08-27T23:58:12.974Z,2.90
